Historique des Minis et Maxis de la station Météo
| Date | Température | Point de rosée | Humidité | Pression | ||||
|---|---|---|---|---|---|---|---|---|
| Mini | Maxi | Mini | Maxi | Mini | Maxi | Mini | Maxi | |
| 24/12/2023 23:59 | 7.83 C° | 10.5 C° | 10,00 C° | 9,99 C° | 100 % | 100 % | 1009.8 Hpa | 1012.97 Hpa |
| 23/12/2023 23:59 | 7.36 C° | 8.79 C° | 7,36 C° | 8,79 C° | 100 % | 100 % | 1010.36 Hpa | 1013.57 Hpa |
| 22/12/2023 23:59 | 6.6 C° | 9.62 C° | 6,60 C° | 9,62 C° | 100 % | 100 % | 1003.16 Hpa | 1010.57 Hpa |
| 21/12/2023 23:59 | -147.32 C° | 10.41 C° | -147,32 C° | 9,99 C° | 100 % | 100 % | 1000.26 Hpa | 1182.13 Hpa |
| 20/12/2023 23:59 | 3.64 C° | 6.86 C° | 3 C° | 6,86 C° | 100 % | 100 % | 1012.88 Hpa | 1018.06 Hpa |
| 19/12/2023 23:59 | 0.09 C° | 3.65 C° | 0,09 C° | 3,65 C° | 100 % | 100 % | 1015.78 Hpa | 1028.39 Hpa |
| 18/12/2023 23:59 | -2.23 C° | 13.77 C° | -0 C° | 9,89 C° | 100 % | 100 % | 1027.89 Hpa | 1033.43 Hpa |
| 17/12/2023 23:59 | -0.54 C° | 14.19 C° | -0,01 C° | 9,94 C° | 100 % | 100 % | 1032.86 Hpa | 1037.13 Hpa |
| 16/12/2023 23:59 | 2.22 C° | 15.97 C° | 10,06 C° | 9,96 C° | 100 % | 100 % | 1036.21 Hpa | 1039 Hpa |
| 15/12/2023 23:59 | 4.65 C° | 6.9 C° | 4,65 C° | 6,90 C° | 100 % | 100 % | 1024.51 Hpa | 1036.94 Hpa |
| 14/12/2023 23:59 | 5.1 C° | 13.3 C° | 10,00 C° | 9,96 C° | 100 % | 100 % | 1003.09 Hpa | 1024.51 Hpa |
| 13/12/2023 23:59 | 6.87 C° | 14.77 C° | 10,00 C° | 9,99 C° | 100 % | 100 % | 995.78 Hpa | 1003.09 Hpa |
| 12/12/2023 23:59 | 6.67 C° | 13.06 C° | 10,00 C° | 9,97 C° | 100 % | 100 % | 999.44 Hpa | 1009.08 Hpa |
| 11/12/2023 23:59 | 8.28 C° | 14.59 C° | 10,00 C° | 9,99 C° | 100 % | 100 % | 1002.81 Hpa | 1008.71 Hpa |
| 10/12/2023 23:59 | 6.91 C° | 10.26 C° | 10,00 C° | 9,99 C° | 100 % | 100 % | 1002.57 Hpa | 1011.08 Hpa |
| 09/12/2023 23:59 | 6.07 C° | 10.52 C° | 10,00 C° | 9,98 C° | 100 % | 100 % | 996.22 Hpa | 1036.67 Hpa |
| 08/12/2023 23:59 | 2.18 C° | 8.39 C° | 2 C° | 8,39 C° | 100 % | 100 % | 649.89 Hpa | 1022.8 Hpa |
| 07/12/2023 23:59 | 0.11 C° | 6.11 C° | 0,11 C° | 6,11 C° | 100 % | 100 % | 1005.89 Hpa | 1018.49 Hpa |
| 06/12/2023 23:59 | 1.38 C° | 8.92 C° | 1,38 C° | 8,92 C° | 100 % | 100 % | 1007.42 Hpa | 1017.72 Hpa |
| 05/12/2023 23:59 | 3.34 C° | 6.98 C° | 3,34 C° | 6,98 C° | 100 % | 100 % | 998.81 Hpa | 1007.48 Hpa |